sensor_id;sensor_type;location;lat;lon;timestamp;temperature;humidity
20174;DHT22;10246;50.620;7.232;2023-01-08T00:00:50;11.90;1.00
20174;DHT22;10246;50.620;7.232;2023-01-08T00:03:17;12.00;1.00
20174;DHT22;10246;50.620;7.232;2023-01-08T00:05:44;12.00;1.00
20174;DHT22;10246;50.620;7.232;2023-01-08T00:08:10;12.00;1.00
20174;DHT22;10246;50.620;7.232;2023-01-08T00:10:38;11.90;1.00
20174;DHT22;10246;50.620;7.232;2023-01-08T00:13:06;11.90;1.00
20174;DHT22;10246;50.620;7.232;2023-01-08T00:15:33;11.90;1.00
20174;DHT22;10246;50.620;7.232;2023-01-08T00:18:00;11.90;1.00
20174;DHT22;10246;50.620;7.232;2023-01-08T00:20:27;11.90;1.00
20174;DHT22;10246;50.620;7.232;2023-01-08T00:22:54;11.90;1.00
20174;DHT22;10246;50.620;7.232;2023-01-08T00:25:21;11.90;1.00
20174;DHT22;10246;50.620;7.232;2023-01-08T00:27:47;11.90;1.00
20174;DHT22;10246;50.620;7.232;2023-01-08T00:30:16;11.90;1.00
20174;DHT22;10246;50.620;7.232;2023-01-08T00:32:43;11.90;1.00
20174;DHT22;10246;50.620;7.232;2023-01-08T00:35:09;11.90;1.00
20174;DHT22;10246;50.620;7.232;2023-01-08T00:37:36;11.90;1.00
20174;DHT22;10246;50.620;7.232;2023-01-08T00:40:04;11.90;1.00
20174;DHT22;10246;50.620;7.232;2023-01-08T00:42:30;11.90;1.00
20174;DHT22;10246;50.620;7.232;2023-01-08T00:44:57;11.90;1.00
20174;DHT22;10246;50.620;7.232;2023-01-08T00:47:25;12.00;1.00
20174;DHT22;10246;50.620;7.232;2023-01-08T00:49:52;11.90;1.00
20174;DHT22;10246;50.620;7.232;2023-01-08T00:52:19;11.90;1.00
20174;DHT22;10246;50.620;7.232;2023-01-08T00:54:45;12.00;1.00
20174;DHT22;10246;50.620;7.232;2023-01-08T00:57:12;12.00;1.00
20174;DHT22;10246;50.620;7.232;2023-01-08T00:59:39;12.00;1.00
20174;DHT22;10246;50.620;7.232;2023-01-08T01:02:06;12.00;1.00
20174;DHT22;10246;50.620;7.232;2023-01-08T01:04:34;12.00;1.00
20174;DHT22;10246;50.620;7.232;2023-01-08T01:07:01;12.00;1.00
20174;DHT22;10246;50.620;7.232;2023-01-08T01:09:28;12.00;1.00
20174;DHT22;10246;50.620;7.232;2023-01-08T01:11:55;12.00;1.00
20174;DHT22;10246;50.620;7.232;2023-01-08T01:14:22;12.00;1.00
20174;DHT22;10246;50.620;7.232;2023-01-08T01:16:49;11.90;1.00
20174;DHT22;10246;50.620;7.232;2023-01-08T01:19:17;11.90;1.00
20174;DHT22;10246;50.620;7.232;2023-01-08T01:21:45;12.00;1.00
20174;DHT22;10246;50.620;7.232;2023-01-08T01:24:12;12.00;1.00
20174;DHT22;10246;50.620;7.232;2023-01-08T01:26:40;12.00;1.00
20174;DHT22;10246;50.620;7.232;2023-01-08T01:29:07;12.00;1.00
20174;DHT22;10246;50.620;7.232;2023-01-08T01:31:34;12.00;1.00
20174;DHT22;10246;50.620;7.232;2023-01-08T01:34:00;12.00;1.00
20174;DHT22;10246;50.620;7.232;2023-01-08T01:36:27;12.00;1.00
20174;DHT22;10246;50.620;7.232;2023-01-08T01:38:57;12.00;1.00
20174;DHT22;10246;50.620;7.232;2023-01-08T01:41:27;12.00;1.00
20174;DHT22;10246;50.620;7.232;2023-01-08T01:43:54;12.10;1.00
20174;DHT22;10246;50.620;7.232;2023-01-08T01:46:27;12.10;1.00
20174;DHT22;10246;50.620;7.232;2023-01-08T01:49:02;12.10;1.00
20174;DHT22;10246;50.620;7.232;2023-01-08T01:51:32;12.10;1.00
20174;DHT22;10246;50.620;7.232;2023-01-08T01:54:02;12.10;1.00
20174;DHT22;10246;50.620;7.232;2023-01-08T01:56:31;12.10;1.00
20174;DHT22;10246;50.620;7.232;2023-01-08T01:58:59;12.10;1.00
20174;DHT22;10246;50.620;7.232;2023-01-08T02:01:27;12.00;1.00
20174;DHT22;10246;50.620;7.232;2023-01-08T02:03:55;12.00;1.00
20174;DHT22;10246;50.620;7.232;2023-01-08T02:06:31;12.00;1.00
20174;DHT22;10246;50.620;7.232;2023-01-08T02:09:05;12.00;1.00
20174;DHT22;10246;50.620;7.232;2023-01-08T02:11:40;12.10;1.00
20174;DHT22;10246;50.620;7.232;2023-01-08T02:14:15;12.00;1.00
20174;DHT22;10246;50.620;7.232;2023-01-08T02:16:46;12.00;1.00
20174;DHT22;10246;50.620;7.232;2023-01-08T02:19:24;12.00;1.00
20174;DHT22;10246;50.620;7.232;2023-01-08T02:22:02;12.00;1.00
20174;DHT22;10246;50.620;7.232;2023-01-08T02:24:42;11.90;1.00
20174;DHT22;10246;50.620;7.232;2023-01-08T02:27:13;11.90;1.00
20174;DHT22;10246;50.620;7.232;2023-01-08T02:29:42;12.00;1.00
20174;DHT22;10246;50.620;7.232;2023-01-08T02:32:09;12.00;1.00
20174;DHT22;10246;50.620;7.232;2023-01-08T02:34:37;12.00;1.00
20174;DHT22;10246;50.620;7.232;2023-01-08T02:37:03;12.00;1.00
20174;DHT22;10246;50.620;7.232;2023-01-08T02:39:43;12.00;1.20
20174;DHT22;10246;50.620;7.232;2023-01-08T02:42:19;12.00;1.80
20174;DHT22;10246;50.620;7.232;2023-01-08T02:44:54;12.00;1.50
20174;DHT22;10246;50.620;7.232;2023-01-08T02:47:29;12.00;1.40
20174;DHT22;10246;50.620;7.232;2023-01-08T02:50:08;12.00;1.80
20174;DHT22;10246;50.620;7.232;2023-01-08T02:52:40;12.00;1.60
20174;DHT22;10246;50.620;7.232;2023-01-08T02:55:08;11.90;1.90
20174;DHT22;10246;50.620;7.232;2023-01-08T02:57:37;12.00;1.80
20174;DHT22;10246;50.620;7.232;2023-01-08T03:00:05;12.00;2.00
20174;DHT22;10246;50.620;7.232;2023-01-08T03:02:34;11.90;2.30
20174;DHT22;10246;50.620;7.232;2023-01-08T03:05:08;11.90;2.20
20174;DHT22;10246;50.620;7.232;2023-01-08T03:07:39;12.00;2.40
20174;DHT22;10246;50.620;7.232;2023-01-08T03:10:07;11.90;2.70
20174;DHT22;10246;50.620;7.232;2023-01-08T03:12:43;11.90;2.80
20174;DHT22;10246;50.620;7.232;2023-01-08T03:15:13;11.90;2.90
20174;DHT22;10246;50.620;7.232;2023-01-08T03:17:43;11.90;3.10
20174;DHT22;10246;50.620;7.232;2023-01-08T03:20:14;11.90;2.90
20174;DHT22;10246;50.620;7.232;2023-01-08T03:22:45;11.90;3.20
20174;DHT22;10246;50.620;7.232;2023-01-08T03:25:14;11.90;3.50
20174;DHT22;10246;50.620;7.232;2023-01-08T03:27:46;11.90;3.80
20174;DHT22;10246;50.620;7.232;2023-01-08T03:30:15;11.80;3.70
20174;DHT22;10246;50.620;7.232;2023-01-08T03:32:44;11.80;3.90
20174;DHT22;10246;50.620;7.232;2023-01-08T03:35:14;11.80;4.20
20174;DHT22;10246;50.620;7.232;2023-01-08T03:37:45;11.80;4.00
20174;DHT22;10246;50.620;7.232;2023-01-08T03:40:18;11.80;3.70
20174;DHT22;10246;50.620;7.232;2023-01-08T03:42:48;11.80;4.20
20174;DHT22;10246;50.620;7.232;2023-01-08T03:45:15;11.70;4.00
20174;DHT22;10246;50.620;7.232;2023-01-08T03:47:43;11.80;4.20
20174;DHT22;10246;50.620;7.232;2023-01-08T03:50:15;11.70;4.30
20174;DHT22;10246;50.620;7.232;2023-01-08T03:52:43;11.70;4.10
20174;DHT22;10246;50.620;7.232;2023-01-08T03:55:09;11.70;4.20
20174;DHT22;10246;50.620;7.232;2023-01-08T03:57:36;11.70;4.20
20174;DHT22;10246;50.620;7.232;2023-01-08T04:00:05;11.70;4.00
20174;DHT22;10246;50.620;7.232;2023-01-08T04:02:32;11.70;4.10
20174;DHT22;10246;50.620;7.232;2023-01-08T04:04:59;11.70;4.40
20174;DHT22;10246;50.620;7.232;2023-01-08T04:07:26;11.70;4.50
20174;DHT22;10246;50.620;7.232;2023-01-08T04:09:53;11.70;4.20
20174;DHT22;10246;50.620;7.232;2023-01-08T04:12:19;11.60;4.20
20174;DHT22;10246;50.620;7.232;2023-01-08T04:14:46;11.60;4.40
20174;DHT22;10246;50.620;7.232;2023-01-08T04:17:14;11.60;4.30
20174;DHT22;10246;50.620;7.232;2023-01-08T04:19:41;11.60;4.50
20174;DHT22;10246;50.620;7.232;2023-01-08T04:22:08;11.60;4.80
20174;DHT22;10246;50.620;7.232;2023-01-08T04:24:35;11.50;4.90
20174;DHT22;10246;50.620;7.232;2023-01-08T04:27:01;11.50;4.80
20174;DHT22;10246;50.620;7.232;2023-01-08T04:29:28;11.50;5.10
20174;DHT22;10246;50.620;7.232;2023-01-08T04:31:55;11.60;5.00
20174;DHT22;10246;50.620;7.232;2023-01-08T04:34:23;11.60;5.10
20174;DHT22;10246;50.620;7.232;2023-01-08T04:36:49;11.50;5.00
20174;DHT22;10246;50.620;7.232;2023-01-08T04:39:16;11.50;5.10
20174;DHT22;10246;50.620;7.232;2023-01-08T04:41:43;11.50;5.10
20174;DHT22;10246;50.620;7.232;2023-01-08T04:44:10;11.60;4.70
20174;DHT22;10246;50.620;7.232;2023-01-08T04:46:37;11.50;4.60
20174;DHT22;10246;50.620;7.232;2023-01-08T04:49:03;11.50;4.50
20174;DHT22;10246;50.620;7.232;2023-01-08T04:51:31;11.50;4.60
20174;DHT22;10246;50.620;7.232;2023-01-08T04:53:58;11.50;4.50
20174;DHT22;10246;50.620;7.232;2023-01-08T04:56:25;11.50;4.60
20174;DHT22;10246;50.620;7.232;2023-01-08T04:58:52;11.50;4.10
20174;DHT22;10246;50.620;7.232;2023-01-08T05:01:20;11.50;4.10
20174;DHT22;10246;50.620;7.232;2023-01-08T05:03:51;11.40;4.00
20174;DHT22;10246;50.620;7.232;2023-01-08T05:06:18;11.50;3.80
20174;DHT22;10246;50.620;7.232;2023-01-08T05:08:46;11.50;3.40
20174;DHT22;10246;50.620;7.232;2023-01-08T05:11:13;11.50;3.30
20174;DHT22;10246;50.620;7.232;2023-01-08T05:13:39;11.50;3.40
20174;DHT22;10246;50.620;7.232;2023-01-08T05:16:06;11.50;3.50
20174;DHT22;10246;50.620;7.232;2023-01-08T05:18:33;11.50;3.40
20174;DHT22;10246;50.620;7.232;2023-01-08T05:21:01;11.50;3.10
20174;DHT22;10246;50.620;7.232;2023-01-08T05:23:28;11.50;3.00
20174;DHT22;10246;50.620;7.232;2023-01-08T05:25:57;11.50;3.00
20174;DHT22;10246;50.620;7.232;2023-01-08T05:28:24;11.50;2.80
20174;DHT22;10246;50.620;7.232;2023-01-08T05:30:51;11.50;2.70
20174;DHT22;10246;50.620;7.232;2023-01-08T05:33:18;11.50;2.80
20174;DHT22;10246;50.620;7.232;2023-01-08T05:35:45;11.50;3.10
20174;DHT22;10246;50.620;7.232;2023-01-08T05:38:11;11.40;3.30
20174;DHT22;10246;50.620;7.232;2023-01-08T05:40:38;11.40;3.10
20174;DHT22;10246;50.620;7.232;2023-01-08T05:43:06;11.40;3.00
20174;DHT22;10246;50.620;7.232;2023-01-08T05:45:33;11.40;3.40
20174;DHT22;10246;50.620;7.232;2023-01-08T05:48:04;11.30;3.30
20174;DHT22;10246;50.620;7.232;2023-01-08T05:50:31;11.40;2.70
20174;DHT22;10246;50.620;7.232;2023-01-08T05:52:58;11.40;2.90
20174;DHT22;10246;50.620;7.232;2023-01-08T05:55:25;11.40;2.90
20174;DHT22;10246;50.620;7.232;2023-01-08T05:57:52;11.30;3.00
20174;DHT22;10246;50.620;7.232;2023-01-08T06:00:20;11.30;3.00
20174;DHT22;10246;50.620;7.232;2023-01-08T06:02:48;11.30;2.90
20174;DHT22;10246;50.620;7.232;2023-01-08T06:05:15;11.30;2.60
20174;DHT22;10246;50.620;7.232;2023-01-08T06:07:42;11.40;2.40
20174;DHT22;10246;50.620;7.232;2023-01-08T06:10:09;11.40;2.00
20174;DHT22;10246;50.620;7.232;2023-01-08T06:12:35;11.40;2.00
20174;DHT22;10246;50.620;7.232;2023-01-08T06:15:02;11.30;2.20
20174;DHT22;10246;50.620;7.232;2023-01-08T06:17:31;11.30;2.10
20174;DHT22;10246;50.620;7.232;2023-01-08T06:19:58;11.30;1.90
20174;DHT22;10246;50.620;7.232;2023-01-08T06:22:24;11.30;1.80
20174;DHT22;10246;50.620;7.232;2023-01-08T06:24:51;11.30;1.90
20174;DHT22;10246;50.620;7.232;2023-01-08T06:27:18;11.30;1.50
20174;DHT22;10246;50.620;7.232;2023-01-08T06:29:45;11.30;1.00
20174;DHT22;10246;50.620;7.232;2023-01-08T06:32:11;11.30;1.20
20174;DHT22;10246;50.620;7.232;2023-01-08T06:34:39;11.30;1.00
20174;DHT22;10246;50.620;7.232;2023-01-08T06:37:07;11.30;1.00
20174;DHT22;10246;50.620;7.232;2023-01-08T06:39:34;11.30;1.80
20174;DHT22;10246;50.620;7.232;2023-01-08T06:42:01;11.30;2.00
20174;DHT22;10246;50.620;7.232;2023-01-08T06:44:27;11.40;2.30
20174;DHT22;10246;50.620;7.232;2023-01-08T06:46:54;11.30;3.00
20174;DHT22;10246;50.620;7.232;2023-01-08T06:49:21;11.30;3.60
20174;DHT22;10246;50.620;7.232;2023-01-08T06:51:49;11.30;3.70
20174;DHT22;10246;50.620;7.232;2023-01-08T06:54:16;11.30;4.10
20174;DHT22;10246;50.620;7.232;2023-01-08T06:56:42;11.30;4.10
20174;DHT22;10246;50.620;7.232;2023-01-08T06:59:09;11.20;4.50
20174;DHT22;10246;50.620;7.232;2023-01-08T07:01:36;11.20;5.10
20174;DHT22;10246;50.620;7.232;2023-01-08T07:04:03;11.20;5.10
20174;DHT22;10246;50.620;7.232;2023-01-08T07:06:29;11.20;5.40
20174;DHT22;10246;50.620;7.232;2023-01-08T07:08:57;11.20;5.20
20174;DHT22;10246;50.620;7.232;2023-01-08T07:11:24;11.10;5.60
20174;DHT22;10246;50.620;7.232;2023-01-08T07:13:51;11.20;5.80
20174;DHT22;10246;50.620;7.232;2023-01-08T07:16:18;11.10;5.80
20174;DHT22;10246;50.620;7.232;2023-01-08T07:18:44;11.20;5.80
20174;DHT22;10246;50.620;7.232;2023-01-08T07:21:11;11.10;7.10
20174;DHT22;10246;50.620;7.232;2023-01-08T07:23:38;11.00;7.10
20174;DHT22;10246;50.620;7.232;2023-01-08T07:26:07;11.00;7.80
20174;DHT22;10246;50.620;7.232;2023-01-08T07:28:34;11.00;8.70
20174;DHT22;10246;50.620;7.232;2023-01-08T07:31:04;10.90;9.50
20174;DHT22;10246;50.620;7.232;2023-01-08T07:33:31;10.90;10.00
20174;DHT22;10246;50.620;7.232;2023-01-08T07:35:58;10.90;9.90
20174;DHT22;10246;50.620;7.232;2023-01-08T07:38:24;11.00;10.40
20174;DHT22;10246;50.620;7.232;2023-01-08T07:40:51;11.00;10.40
20174;DHT22;10246;50.620;7.232;2023-01-08T07:43:19;10.90;11.50
20174;DHT22;10246;50.620;7.232;2023-01-08T07:45:46;10.90;12.90
20174;DHT22;10246;50.620;7.232;2023-01-08T07:48:13;10.80;12.80
20174;DHT22;10246;50.620;7.232;2023-01-08T07:50:41;10.70;12.80
20174;DHT22;10246;50.620;7.232;2023-01-08T07:53:09;10.70;13.30
20174;DHT22;10246;50.620;7.232;2023-01-08T07:55:36;10.70;13.50
20174;DHT22;10246;50.620;7.232;2023-01-08T07:58:07;10.60;12.70
20174;DHT22;10246;50.620;7.232;2023-01-08T08:00:35;10.70;11.00
20174;DHT22;10246;50.620;7.232;2023-01-08T08:03:03;10.70;10.40
20174;DHT22;10246;50.620;7.232;2023-01-08T08:05:31;10.70;10.70
20174;DHT22;10246;50.620;7.232;2023-01-08T08:07:58;10.80;10.40
20174;DHT22;10246;50.620;7.232;2023-01-08T08:10:24;10.80;10.10
20174;DHT22;10246;50.620;7.232;2023-01-08T08:12:51;10.80;10.00
20174;DHT22;10246;50.620;7.232;2023-01-08T08:15:18;10.70;9.50
20174;DHT22;10246;50.620;7.232;2023-01-08T08:17:46;10.80;7.20
20174;DHT22;10246;50.620;7.232;2023-01-08T08:20:13;10.90;7.00
20174;DHT22;10246;50.620;7.232;2023-01-08T08:22:40;10.80;6.70
20174;DHT22;10246;50.620;7.232;2023-01-08T08:25:07;10.80;6.80
20174;DHT22;10246;50.620;7.232;2023-01-08T08:27:34;10.80;5.80
20174;DHT22;10246;50.620;7.232;2023-01-08T08:30:01;10.80;6.30
20174;DHT22;10246;50.620;7.232;2023-01-08T08:32:28;10.80;4.90
20174;DHT22;10246;50.620;7.232;2023-01-08T08:34:57;10.90;5.40
20174;DHT22;10246;50.620;7.232;2023-01-08T08:37:23;10.80;5.70
20174;DHT22;10246;50.620;7.232;2023-01-08T08:39:50;10.80;7.10
20174;DHT22;10246;50.620;7.232;2023-01-08T08:42:17;10.80;7.20
20174;DHT22;10246;50.620;7.232;2023-01-08T08:44:44;10.80;7.00
20174;DHT22;10246;50.620;7.232;2023-01-08T08:47:10;10.70;7.30
20174;DHT22;10246;50.620;7.232;2023-01-08T08:49:37;10.70;8.40
20174;DHT22;10246;50.620;7.232;2023-01-08T08:52:06;10.60;9.30
20174;DHT22;10246;50.620;7.232;2023-01-08T08:54:32;10.70;9.70
20174;DHT22;10246;50.620;7.232;2023-01-08T08:56:59;10.60;9.20
20174;DHT22;10246;50.620;7.232;2023-01-08T08:59:26;10.60;9.80
20174;DHT22;10246;50.620;7.232;2023-01-08T09:01:52;10.60;9.70
20174;DHT22;10246;50.620;7.232;2023-01-08T09:04:19;10.60;9.80
20174;DHT22;10246;50.620;7.232;2023-01-08T09:06:46;10.60;8.40
20174;DHT22;10246;50.620;7.232;2023-01-08T09:09:14;10.70;7.90
20174;DHT22;10246;50.620;7.232;2023-01-08T09:11:41;10.70;8.10
20174;DHT22;10246;50.620;7.232;2023-01-08T09:14:09;10.70;8.00
20174;DHT22;10246;50.620;7.232;2023-01-08T09:16:35;10.70;7.80
20174;DHT22;10246;50.620;7.232;2023-01-08T09:19:02;10.70;7.00
20174;DHT22;10246;50.620;7.232;2023-01-08T09:21:32;10.70;6.20
20174;DHT22;10246;50.620;7.232;2023-01-08T09:23:59;10.70;6.70
20174;DHT22;10246;50.620;7.232;2023-01-08T09:26:28;10.70;7.50
20174;DHT22;10246;50.620;7.232;2023-01-08T09:28:57;10.70;7.70
20174;DHT22;10246;50.620;7.232;2023-01-08T09:31:25;10.70;7.10
20174;DHT22;10246;50.620;7.232;2023-01-08T09:33:52;10.70;7.00
20174;DHT22;10246;50.620;7.232;2023-01-08T09:36:19;10.80;6.70
20174;DHT22;10246;50.620;7.232;2023-01-08T09:38:46;10.80;6.60
20174;DHT22;10246;50.620;7.232;2023-01-08T09:41:18;10.80;6.60
20174;DHT22;10246;50.620;7.232;2023-01-08T09:43:50;10.80;7.00
20174;DHT22;10246;50.620;7.232;2023-01-08T09:46:24;10.80;6.80
20174;DHT22;10246;50.620;7.232;2023-01-08T09:48:56;10.90;7.20
20174;DHT22;10246;50.620;7.232;2023-01-08T09:51:30;10.90;6.20
20174;DHT22;10246;50.620;7.232;2023-01-08T09:54:04;11.00;5.60
20174;DHT22;10246;50.620;7.232;2023-01-08T09:56:33;11.10;5.00
20174;DHT22;10246;50.620;7.232;2023-01-08T09:59:04;11.10;5.00
20174;DHT22;10246;50.620;7.232;2023-01-08T10:01:34;11.10;5.40
20174;DHT22;10246;50.620;7.232;2023-01-08T10:04:04;11.20;5.30
20174;DHT22;10246;50.620;7.232;2023-01-08T10:06:32;11.20;4.90
20174;DHT22;10246;50.620;7.232;2023-01-08T10:08:59;11.20;5.00
20174;DHT22;10246;50.620;7.232;2023-01-08T10:11:38;11.20;5.70
20174;DHT22;10246;50.620;7.232;2023-01-08T10:14:17;11.20;5.50
20174;DHT22;10246;50.620;7.232;2023-01-08T10:16:46;11.20;4.40
20174;DHT22;10246;50.620;7.232;2023-01-08T10:19:14;11.10;4.20
20174;DHT22;10246;50.620;7.232;2023-01-08T10:21:41;11.20;4.80
20174;DHT22;10246;50.620;7.232;2023-01-08T10:24:14;11.20;5.10
20174;DHT22;10246;50.620;7.232;2023-01-08T10:26:44;11.20;5.70
20174;DHT22;10246;50.620;7.232;2023-01-08T10:29:16;11.20;5.70
20174;DHT22;10246;50.620;7.232;2023-01-08T10:31:49;11.30;6.20
20174;DHT22;10246;50.620;7.232;2023-01-08T10:34:31;11.40;6.30
20174;DHT22;10246;50.620;7.232;2023-01-08T10:36:59;11.50;6.50
20174;DHT22;10246;50.620;7.232;2023-01-08T10:39:28;11.70;5.70
20174;DHT22;10246;50.620;7.232;2023-01-08T10:42:05;11.80;4.30
20174;DHT22;10246;50.620;7.232;2023-01-08T10:44:36;11.80;4.10
20174;DHT22;10246;50.620;7.232;2023-01-08T10:47:03;11.80;4.00
20174;DHT22;10246;50.620;7.232;2023-01-08T10:49:38;11.90;3.50
20174;DHT22;10246;50.620;7.232;2023-01-08T10:52:22;11.90;3.00
20174;DHT22;10246;50.620;7.232;2023-01-08T10:54:49;11.90;2.20
20174;DHT22;10246;50.620;7.232;2023-01-08T10:57:22;11.90;1.60
20174;DHT22;10246;50.620;7.232;2023-01-08T10:59:54;11.80;1.60
20174;DHT22;10246;50.620;7.232;2023-01-08T11:02:29;11.80;1.00
20174;DHT22;10246;50.620;7.232;2023-01-08T11:04:59;11.80;1.00
20174;DHT22;10246;50.620;7.232;2023-01-08T11:07:30;11.90;1.00
20174;DHT22;10246;50.620;7.232;2023-01-08T11:10:01;11.80;1.00
20174;DHT22;10246;50.620;7.232;2023-01-08T11:12:34;11.70;1.00
20174;DHT22;10246;50.620;7.232;2023-01-08T11:15:04;11.70;1.00
20174;DHT22;10246;50.620;7.232;2023-01-08T11:17:35;11.70;1.00
20174;DHT22;10246;50.620;7.232;2023-01-08T11:20:19;11.70;1.00
20174;DHT22;10246;50.620;7.232;2023-01-08T11:22:50;11.70;1.00
20174;DHT22;10246;50.620;7.232;2023-01-08T11:25:21;11.70;1.00
20174;DHT22;10246;50.620;7.232;2023-01-08T11:27:55;11.70;1.00
20174;DHT22;10246;50.620;7.232;2023-01-08T11:30:27;11.70;1.00
20174;DHT22;10246;50.620;7.232;2023-01-08T11:33:03;11.70;1.00
20174;DHT22;10246;50.620;7.232;2023-01-08T11:35:36;11.80;1.00
20174;DHT22;10246;50.620;7.232;2023-01-08T11:38:10;11.80;1.00
20174;DHT22;10246;50.620;7.232;2023-01-08T11:40:41;11.80;1.00
20174;DHT22;10246;50.620;7.232;2023-01-08T11:43:17;11.80;1.00
20174;DHT22;10246;50.620;7.232;2023-01-08T11:45:56;11.80;1.00
20174;DHT22;10246;50.620;7.232;2023-01-08T11:48:36;11.80;1.00
20174;DHT22;10246;50.620;7.232;2023-01-08T11:54:21;11.70;1.00
20174;DHT22;10246;50.620;7.232;2023-01-08T11:57:01;11.90;1.00
20174;DHT22;10246;50.620;7.232;2023-01-08T11:59:41;12.10;1.00
20174;DHT22;10246;50.620;7.232;2023-01-08T12:02:28;12.10;1.00
20174;DHT22;10246;50.620;7.232;2023-01-08T12:05:25;12.00;1.00
20174;DHT22;10246;50.620;7.232;2023-01-08T12:08:01;11.90;1.00
20174;DHT22;10246;50.620;7.232;2023-01-08T12:10:37;11.80;1.00
20174;DHT22;10246;50.620;7.232;2023-01-08T12:13:18;11.90;1.00
20174;DHT22;10246;50.620;7.232;2023-01-08T12:16:00;11.80;1.00
20174;DHT22;10246;50.620;7.232;2023-01-08T12:18:37;11.80;1.00
20174;DHT22;10246;50.620;7.232;2023-01-08T12:21:10;11.80;1.00
20174;DHT22;10246;50.620;7.232;2023-01-08T12:23:52;11.80;1.00
20174;DHT22;10246;50.620;7.232;2023-01-08T12:26:34;11.80;1.00
20174;DHT22;10246;50.620;7.232;2023-01-08T12:29:22;11.80;1.00
20174;DHT22;10246;50.620;7.232;2023-01-08T12:32:13;11.70;1.00
20174;DHT22;10246;50.620;7.232;2023-01-08T12:34:50;11.70;1.00
20174;DHT22;10246;50.620;7.232;2023-01-08T12:37:25;11.70;1.00
20174;DHT22;10246;50.620;7.232;2023-01-08T12:39:56;11.70;1.00
20174;DHT22;10246;50.620;7.232;2023-01-08T12:42:30;11.70;1.00
20174;DHT22;10246;50.620;7.232;2023-01-08T12:45:02;11.70;1.00
20174;DHT22;10246;50.620;7.232;2023-01-08T12:47:36;11.60;1.00
20174;DHT22;10246;50.620;7.232;2023-01-08T12:50:18;11.70;1.00
20174;DHT22;10246;50.620;7.232;2023-01-08T12:52:51;11.70;1.00
20174;DHT22;10246;50.620;7.232;2023-01-08T12:55:32;11.70;1.00
20174;DHT22;10246;50.620;7.232;2023-01-08T12:58:10;11.80;1.00
20174;DHT22;10246;50.620;7.232;2023-01-08T13:00:50;11.80;1.00
20174;DHT22;10246;50.620;7.232;2023-01-08T13:03:22;11.80;1.00
20174;DHT22;10246;50.620;7.232;2023-01-08T13:05:52;11.80;1.00
20174;DHT22;10246;50.620;7.232;2023-01-08T13:08:34;11.90;1.00
20174;DHT22;10246;50.620;7.232;2023-01-08T13:11:03;11.90;1.00
20174;DHT22;10246;50.620;7.232;2023-01-08T13:13:31;11.80;1.00
20174;DHT22;10246;50.620;7.232;2023-01-08T13:16:13;11.90;1.00
20174;DHT22;10246;50.620;7.232;2023-01-08T13:18:50;11.90;1.00
20174;DHT22;10246;50.620;7.232;2023-01-08T13:21:33;11.90;1.00
20174;DHT22;10246;50.620;7.232;2023-01-08T13:24:06;12.00;1.00
20174;DHT22;10246;50.620;7.232;2023-01-08T13:26:47;12.00;1.00
20174;DHT22;10246;50.620;7.232;2023-01-08T13:29:35;12.00;1.00
20174;DHT22;10246;50.620;7.232;2023-01-08T13:34:46;12.00;1.00
20174;DHT22;10246;50.620;7.232;2023-01-08T13:37:24;12.10;1.00
20174;DHT22;10246;50.620;7.232;2023-01-08T13:39:51;12.10;1.00
20174;DHT22;10246;50.620;7.232;2023-01-08T13:42:22;12.10;1.00
20174;DHT22;10246;50.620;7.232;2023-01-08T13:44:51;12.10;1.00
20174;DHT22;10246;50.620;7.232;2023-01-08T13:47:30;12.00;1.00
20174;DHT22;10246;50.620;7.232;2023-01-08T13:50:02;12.00;1.00
20174;DHT22;10246;50.620;7.232;2023-01-08T13:52:40;12.00;1.00
20174;DHT22;10246;50.620;7.232;2023-01-08T13:55:15;12.00;1.00
20174;DHT22;10246;50.620;7.232;2023-01-08T13:57:45;12.00;1.00
20174;DHT22;10246;50.620;7.232;2023-01-08T14:00:21;12.10;1.00
20174;DHT22;10246;50.620;7.232;2023-01-08T14:02:49;12.10;1.00
20174;DHT22;10246;50.620;7.232;2023-01-08T14:05:25;12.10;1.00
20174;DHT22;10246;50.620;7.232;2023-01-08T14:07:54;12.10;1.00
20174;DHT22;10246;50.620;7.232;2023-01-08T14:10:22;12.20;1.00
20174;DHT22;10246;50.620;7.232;2023-01-08T14:12:53;12.10;1.00
20174;DHT22;10246;50.620;7.232;2023-01-08T14:15:25;12.10;1.00
20174;DHT22;10246;50.620;7.232;2023-01-08T14:17:56;12.00;1.00
20174;DHT22;10246;50.620;7.232;2023-01-08T14:20:29;11.90;1.00
20174;DHT22;10246;50.620;7.232;2023-01-08T14:22:59;12.00;1.00
20174;DHT22;10246;50.620;7.232;2023-01-08T14:25:29;11.90;1.00
20174;DHT22;10246;50.620;7.232;2023-01-08T14:28:04;11.80;1.00
20174;DHT22;10246;50.620;7.232;2023-01-08T14:30:31;11.80;1.00
20174;DHT22;10246;50.620;7.232;2023-01-08T14:33:01;11.80;1.00
20174;DHT22;10246;50.620;7.232;2023-01-08T14:35:33;11.70;1.00
20174;DHT22;10246;50.620;7.232;2023-01-08T14:38:02;11.60;1.00
20174;DHT22;10246;50.620;7.232;2023-01-08T14:40:33;11.60;1.00
20174;DHT22;10246;50.620;7.232;2023-01-08T14:43:05;11.60;1.00
20174;DHT22;10246;50.620;7.232;2023-01-08T14:45:35;11.60;1.00
20174;DHT22;10246;50.620;7.232;2023-01-08T14:48:09;11.60;1.00
20174;DHT22;10246;50.620;7.232;2023-01-08T14:50:38;11.60;1.00
20174;DHT22;10246;50.620;7.232;2023-01-08T14:53:14;11.50;1.00
20174;DHT22;10246;50.620;7.232;2023-01-08T14:55:45;11.60;1.00
20174;DHT22;10246;50.620;7.232;2023-01-08T14:58:19;11.60;1.00
20174;DHT22;10246;50.620;7.232;2023-01-08T15:00:52;11.60;1.00
20174;DHT22;10246;50.620;7.232;2023-01-08T15:03:29;11.50;1.00
20174;DHT22;10246;50.620;7.232;2023-01-08T15:05:57;11.50;1.00
20174;DHT22;10246;50.620;7.232;2023-01-08T15:08:26;11.50;1.00
20174;DHT22;10246;50.620;7.232;2023-01-08T15:10:58;11.40;1.00
20174;DHT22;10246;50.620;7.232;2023-01-08T15:13:31;11.40;1.00
20174;DHT22;10246;50.620;7.232;2023-01-08T15:16:03;11.40;1.00
20174;DHT22;10246;50.620;7.232;2023-01-08T15:18:43;11.30;1.00
20174;DHT22;10246;50.620;7.232;2023-01-08T15:21:16;11.20;1.00
20174;DHT22;10246;50.620;7.232;2023-01-08T15:23:48;11.20;1.00
20174;DHT22;10246;50.620;7.232;2023-01-08T15:26:16;11.20;1.00
20174;DHT22;10246;50.620;7.232;2023-01-08T15:28:51;11.20;1.00
20174;DHT22;10246;50.620;7.232;2023-01-08T15:31:24;11.20;1.00
20174;DHT22;10246;50.620;7.232;2023-01-08T15:33:54;11.10;1.00
20174;DHT22;10246;50.620;7.232;2023-01-08T15:36:21;11.10;1.00
20174;DHT22;10246;50.620;7.232;2023-01-08T15:38:50;11.10;1.00
20174;DHT22;10246;50.620;7.232;2023-01-08T15:41:19;11.10;1.00
20174;DHT22;10246;50.620;7.232;2023-01-08T15:44:08;11.00;1.00
20174;DHT22;10246;50.620;7.232;2023-01-08T15:46:40;11.00;1.00
20174;DHT22;10246;50.620;7.232;2023-01-08T15:49:12;10.90;1.00
20174;DHT22;10246;50.620;7.232;2023-01-08T15:51:41;10.90;1.00
20174;DHT22;10246;50.620;7.232;2023-01-08T15:54:11;10.90;1.00
20174;DHT22;10246;50.620;7.232;2023-01-08T15:56:41;10.80;1.00
20174;DHT22;10246;50.620;7.232;2023-01-08T15:59:08;10.80;1.00
20174;DHT22;10246;50.620;7.232;2023-01-08T16:01:35;10.80;1.00
20174;DHT22;10246;50.620;7.232;2023-01-08T16:04:08;10.70;1.00
20174;DHT22;10246;50.620;7.232;2023-01-08T16:06:35;10.70;1.00
20174;DHT22;10246;50.620;7.232;2023-01-08T16:09:16;10.70;1.00